createdAt,value
2019-03-22T00:00:43.557Z,76.33
2019-03-22T00:03:12.026Z,72.60
2019-03-22T00:05:40.527Z,69.17
2019-03-22T00:08:08.993Z,68.07
2019-03-22T00:10:37.521Z,72.37
2019-03-22T00:13:06.014Z,67.83
2019-03-22T00:15:34.511Z,68.60
2019-03-22T00:18:02.987Z,64.83
2019-03-22T00:20:31.432Z,61.63
2019-03-22T00:22:59.930Z,69.37
2019-03-22T00:25:28.406Z,62.53
2019-03-22T00:27:56.862Z,56.47
2019-03-22T00:30:25.310Z,59.30
2019-03-22T00:32:54.183Z,55.70
2019-03-22T00:35:22.901Z,57.70
2019-03-22T00:37:51.341Z,52.03
2019-03-22T00:40:19.798Z,50.97
2019-03-22T00:42:48.243Z,48.13
2019-03-22T00:45:16.710Z,53.33
2019-03-22T00:47:45.149Z,47.47
2019-03-22T00:50:14.277Z,38.77
2019-03-22T00:52:42.765Z,43.90
2019-03-22T00:55:11.235Z,48.33
2019-03-22T00:57:39.803Z,44.93
2019-03-22T01:00:13.250Z,46.50
2019-03-22T01:02:41.742Z,43.13
2019-03-22T01:05:10.555Z,39.87
2019-03-22T01:07:40.526Z,41.43
2019-03-22T01:10:11.453Z,36.17
2019-03-22T01:12:40.155Z,39.50
2019-03-22T01:15:10.940Z,33.47
2019-03-22T01:17:39.384Z,32.13
2019-03-22T01:20:09.880Z,35.90
2019-03-22T01:22:38.345Z,35.90
2019-03-22T01:25:08.059Z,38.33
2019-03-22T01:27:40.868Z,37.43
2019-03-22T01:30:13.094Z,40.50
2019-03-22T01:32:41.608Z,35.97
2019-03-22T01:35:10.519Z,37.73
2019-03-22T01:37:38.974Z,35.50
2019-03-22T01:40:09.372Z,35.83
2019-03-22T01:42:37.817Z,39.33
2019-03-22T01:45:09.265Z,39.03
2019-03-22T01:47:37.991Z,34.20
2019-03-22T01:50:08.975Z,39.83
2019-03-22T01:52:37.954Z,37.37
2019-03-22T01:55:06.587Z,39.60
2019-03-22T01:57:35.194Z,41.50
2019-03-22T02:00:05.438Z,40.37
2019-03-22T02:02:33.925Z,43.50
2019-03-22T02:05:02.438Z,38.90
2019-03-22T02:07:30.900Z,40.77
2019-03-22T02:09:59.352Z,34.50
2019-03-22T02:13:08.626Z,36.47
2019-03-22T02:15:37.279Z,33.73
2019-03-22T02:21:47.143Z,33.13
2019-03-22T02:24:15.682Z,28.93
2019-03-22T02:26:44.143Z,29.63
2019-03-22T02:29:12.614Z,31.73
2019-03-22T02:31:41.129Z,33.37
2019-03-22T02:34:09.603Z,33.63
2019-03-22T02:36:38.064Z,30.90
2019-03-22T02:39:06.964Z,32.43
2019-03-22T02:41:35.713Z,28.00
2019-03-22T02:44:04.380Z,34.60
2019-03-22T02:46:32.833Z,28.43
2019-03-22T02:49:01.355Z,26.70
2019-03-22T02:51:30.017Z,27.97
2019-03-22T02:53:58.537Z,30.73
2019-03-22T02:56:27.106Z,33.13
2019-03-22T02:58:59.079Z,28.90
2019-03-22T03:01:25.829Z,28.50
2019-03-22T03:03:54.445Z,34.50
2019-03-22T03:06:22.952Z,36.80
2019-03-22T03:08:51.416Z,34.23
2019-03-22T03:11:19.918Z,34.30
2019-03-22T03:13:48.476Z,36.83
2019-03-22T03:16:16.918Z,35.87
2019-03-22T03:18:45.380Z,39.43
2019-03-22T03:21:13.924Z,35.83
2019-03-22T03:23:42.464Z,38.23
2019-03-22T03:26:10.995Z,32.27
2019-03-22T03:28:39.461Z,35.20
2019-03-22T03:31:08.487Z,37.90
2019-03-22T03:33:37.127Z,36.57
2019-03-22T03:36:05.962Z,34.17
2019-03-22T03:38:34.427Z,36.07
2019-03-22T03:41:03.432Z,35.00
2019-03-22T03:43:31.902Z,33.50
2019-03-22T03:46:00.417Z,32.47
2019-03-22T03:48:28.899Z,38.40
2019-03-22T03:50:57.406Z,35.77
2019-03-22T03:53:25.878Z,32.30
2019-03-22T03:55:54.353Z,29.60
2019-03-22T03:58:22.887Z,32.53
2019-03-22T04:00:51.326Z,28.77
2019-03-22T04:03:19.831Z,35.37
2019-03-22T04:05:48.336Z,32.27
2019-03-22T04:08:16.802Z,32.57
2019-03-22T04:10:45.254Z,29.77
2019-03-22T04:13:13.736Z,33.17
2019-03-22T04:15:42.201Z,31.67
2019-03-22T04:18:10.648Z,31.40
2019-03-22T04:20:39.164Z,31.10
2019-03-22T04:23:07.657Z,29.97
2019-03-22T04:25:36.128Z,33.10
2019-03-22T04:28:04.815Z,31.77
2019-03-22T04:30:33.340Z,28.20
2019-03-22T04:33:01.867Z,31.47
2019-03-22T04:35:30.307Z,29.87
2019-03-22T04:37:58.750Z,30.53
2019-03-22T04:40:30.311Z,32.50
2019-03-22T04:42:59.091Z,32.80
2019-03-22T04:45:30.569Z,32.27
2019-03-22T04:48:02.110Z,29.33
2019-03-22T04:50:33.278Z,30.57
2019-03-22T04:53:03.384Z,34.30
2019-03-22T04:55:33.785Z,34.20
2019-03-22T04:58:03.459Z,31.20
2019-03-22T05:00:33.452Z,28.87
2019-03-22T05:03:03.143Z,30.40
2019-03-22T05:05:31.659Z,29.60
2019-03-22T05:08:00.571Z,29.00
2019-03-22T05:10:29.450Z,27.73
2019-03-22T05:13:00.108Z,25.37
2019-03-22T05:15:31.491Z,24.93
2019-03-22T05:18:01.573Z,25.87
2019-03-22T05:20:32.443Z,25.83
2019-03-22T05:23:01.718Z,27.53
2019-03-22T05:25:30.810Z,28.20
2019-03-22T05:28:01.609Z,25.17
2019-03-22T05:30:51.464Z,27.97
2019-03-22T05:33:19.907Z,26.67
2019-03-22T05:35:48.395Z,27.97
2019-03-22T05:38:16.933Z,26.00
2019-03-22T05:40:45.400Z,31.40
2019-03-22T05:43:13.916Z,27.10
2019-03-22T05:45:42.421Z,31.17
2019-03-22T05:48:10.893Z,27.20
2019-03-22T05:50:39.382Z,28.87
2019-03-22T05:53:07.930Z,31.47
2019-03-22T05:55:36.397Z,28.63
2019-03-22T05:58:04.907Z,26.60
2019-03-22T06:00:33.380Z,25.77
2019-03-22T06:03:01.842Z,30.73
2019-03-22T06:05:30.307Z,29.83
2019-03-22T06:07:58.780Z,26.23
2019-03-22T06:10:27.229Z,30.17
2019-03-22T06:12:55.697Z,29.17
2019-03-22T06:15:24.220Z,31.57
2019-03-22T06:17:52.749Z,32.20
2019-03-22T06:20:21.186Z,28.43
2019-03-22T06:22:49.679Z,30.60
2019-03-22T06:25:18.224Z,28.60
2019-03-22T06:27:46.676Z,29.20
2019-03-22T06:30:15.199Z,29.50
2019-03-22T06:32:43.686Z,29.77
2019-03-22T06:35:12.939Z,28.27
2019-03-22T06:37:41.516Z,28.10
2019-03-22T06:40:10.457Z,30.10
2019-03-22T06:42:39.147Z,32.17
2019-03-22T06:45:07.966Z,34.87
2019-03-22T06:47:36.444Z,35.47
2019-03-22T06:50:06.853Z,37.50
2019-03-22T06:52:35.468Z,32.23
2019-03-22T06:55:06.318Z,29.67
2019-03-22T06:57:34.848Z,36.07
2019-03-22T07:00:07.861Z,33.57
2019-03-22T07:02:36.489Z,39.93
2019-03-22T07:05:06.455Z,24.13
2019-03-22T07:07:34.981Z,31.97
2019-03-22T07:10:05.238Z,34.80
2019-03-22T07:12:33.721Z,34.10
2019-03-22T07:15:02.199Z,30.63
2019-03-22T07:17:31.992Z,24.93
2019-03-22T07:20:00.551Z,27.13
2019-03-22T07:22:28.996Z,18.03
2019-03-22T07:24:57.521Z,23.30
2019-03-22T07:27:26.049Z,20.40
2019-03-22T07:29:54.505Z,19.07
2019-03-22T07:32:22.950Z,24.60
2019-03-22T07:34:51.422Z,20.77
2019-03-22T07:37:19.883Z,20.20
2019-03-22T07:39:48.383Z,20.77
2019-03-22T07:42:17.693Z,23.30
2019-03-22T07:44:46.296Z,19.03
2019-03-22T07:47:14.832Z,21.00
2019-03-22T07:49:43.342Z,21.03
2019-03-22T07:52:11.780Z,24.97
2019-03-22T07:54:40.260Z,24.50
2019-03-22T07:57:08.718Z,24.43
2019-03-22T07:59:37.233Z,28.83
2019-03-22T08:02:05.674Z,26.83
2019-03-22T08:04:34.144Z,22.60
2019-03-22T08:07:02.579Z,20.57
2019-03-22T08:09:31.110Z,20.00
2019-03-22T08:11:59.650Z,23.00
2019-03-22T08:14:28.182Z,22.90
2019-03-22T08:16:56.709Z,23.40
2019-03-22T08:19:25.243Z,23.83
2019-03-22T08:21:53.695Z,25.97
2019-03-22T08:24:22.232Z,24.90
2019-03-22T08:26:50.757Z,25.47
2019-03-22T08:29:19.348Z,21.87
2019-03-22T08:31:47.803Z,24.53
2019-03-22T08:34:17.286Z,25.57
2019-03-22T08:36:45.809Z,24.80
2019-03-22T08:39:14.306Z,24.03
2019-03-22T08:41:42.784Z,25.07
2019-03-22T08:44:11.307Z,24.00
2019-03-22T08:46:39.776Z,20.07
2019-03-22T08:49:09.669Z,21.47
2019-03-22T08:51:38.354Z,21.67
2019-03-22T08:54:06.849Z,26.43
2019-03-22T08:56:36.281Z,25.00
2019-03-22T08:59:05.543Z,24.60
2019-03-22T09:01:34.042Z,23.73
2019-03-22T09:04:02.630Z,23.90
2019-03-22T09:06:31.147Z,24.10
2019-03-22T09:08:59.705Z,27.40
2019-03-22T09:11:28.278Z,24.77
2019-03-22T09:13:56.793Z,27.17
2019-03-22T09:16:25.329Z,26.87
2019-03-22T09:18:53.855Z,28.67
2019-03-22T09:21:22.397Z,27.93
2019-03-22T09:23:50.912Z,27.07
2019-03-22T09:26:20.139Z,34.07
2019-03-22T09:28:48.742Z,26.00
2019-03-22T09:31:17.255Z,30.63
2019-03-22T09:33:45.705Z,34.33
2019-03-22T09:36:14.206Z,34.03
2019-03-22T09:38:42.746Z,34.27
2019-03-22T09:41:11.270Z,36.77
2019-03-22T09:43:39.738Z,35.17
2019-03-22T09:46:08.296Z,36.67
2019-03-22T09:48:36.825Z,38.10
2019-03-22T09:51:05.407Z,43.23
2019-03-22T09:53:33.979Z,42.17
2019-03-22T09:56:02.541Z,43.33
2019-03-22T09:58:30.973Z,49.13
2019-03-22T10:00:59.448Z,54.30
2019-03-22T10:03:27.992Z,57.50
2019-03-22T10:05:56.481Z,61.40
2019-03-22T10:08:25.029Z,64.07
2019-03-22T10:10:53.507Z,62.57
2019-03-22T10:13:22.006Z,79.33
2019-03-22T10:15:50.487Z,74.93
2019-03-22T10:18:18.946Z,88.73
2019-03-22T10:20:47.391Z,87.87
2019-03-22T10:23:15.857Z,91.23
2019-03-22T10:25:44.389Z,90.27
2019-03-22T10:28:12.868Z,86.67
2019-03-22T10:30:41.377Z,103.10
2019-03-22T10:33:22.147Z,95.57
2019-03-22T10:35:40.022Z,94.23
2019-03-22T10:38:16.034Z,90.17
2019-03-22T10:40:38.813Z,90.37
2019-03-22T10:43:07.399Z,97.30
2019-03-22T10:45:35.964Z,92.53
2019-03-22T10:48:04.550Z,91.60
2019-03-22T10:50:33.057Z,83.40
2019-03-22T10:53:01.840Z,79.63
2019-03-22T10:55:30.873Z,73.97
2019-03-22T10:57:59.474Z,76.20
2019-03-22T11:00:28.080Z,65.57
2019-03-22T11:02:56.590Z,66.87
2019-03-22T11:05:25.102Z,78.00
2019-03-22T11:07:53.615Z,68.87
2019-03-22T11:10:22.066Z,64.90
2019-03-22T11:12:50.595Z,64.33
2019-03-22T11:15:19.061Z,64.27
2019-03-22T11:17:47.535Z,59.03
2019-03-22T11:20:17.557Z,63.43
2019-03-22T11:22:46.077Z,64.67
2019-03-22T11:25:14.962Z,62.40
2019-03-22T11:27:43.434Z,65.50
2019-03-22T11:30:18.132Z,58.37
2019-03-22T11:32:46.646Z,59.00
2019-03-22T11:35:15.878Z,59.30
2019-03-22T11:37:44.362Z,56.60
2019-03-22T11:40:15.457Z,58.87
2019-03-22T11:42:43.914Z,55.13
2019-03-22T11:45:18.378Z,53.47
2019-03-22T11:47:47.004Z,59.10
2019-03-22T11:50:15.553Z,56.53
2019-03-22T11:52:45.509Z,53.33
2019-03-22T11:55:14.776Z,55.63
2019-03-22T11:57:43.311Z,57.00
2019-03-22T12:00:17.465Z,57.50
2019-03-22T12:02:45.920Z,53.63
2019-03-22T12:05:15.566Z,57.67
2019-03-22T12:07:44.123Z,56.53
2019-03-22T12:10:18.447Z,53.17
2019-03-22T12:12:47.611Z,53.37
2019-03-22T12:15:21.484Z,52.57
2019-03-22T12:17:50.208Z,60.13
2019-03-22T12:20:23.040Z,50.83
2019-03-22T12:22:52.033Z,56.90
2019-03-22T12:25:24.063Z,53.43
2019-03-22T12:27:52.650Z,57.73
2019-03-22T12:30:21.221Z,58.30
2019-03-22T12:32:49.702Z,52.47
2019-03-22T12:35:18.612Z,51.00
2019-03-22T12:37:47.126Z,52.77
2019-03-22T12:40:18.679Z,50.23
2019-03-22T12:42:47.260Z,52.60
2019-03-22T12:45:21.887Z,48.33
2019-03-22T12:47:50.439Z,52.47
2019-03-22T12:50:19.450Z,53.77
2019-03-22T12:52:47.941Z,54.67
2019-03-22T12:55:16.833Z,54.33
2019-03-22T12:57:45.393Z,46.50
2019-03-22T13:00:17.246Z,45.57
2019-03-22T13:02:45.934Z,49.43
2019-03-22T13:05:14.832Z,47.37
2019-03-22T13:07:43.296Z,52.10
2019-03-22T13:10:29.027Z,54.40
2019-03-22T13:12:57.580Z,45.97
2019-03-22T13:15:26.878Z,51.03
2019-03-22T13:17:55.349Z,50.23
2019-03-22T13:20:23.837Z,46.73
2019-03-22T13:22:52.352Z,47.37
2019-03-22T13:25:21.324Z,46.37
2019-03-22T13:27:50.046Z,49.63
2019-03-22T13:30:30.674Z,51.40
2019-03-22T13:32:59.394Z,48.83
2019-03-22T13:35:27.930Z,48.70
2019-03-22T13:37:56.396Z,49.47
2019-03-22T13:40:24.942Z,53.10
2019-03-22T13:42:53.609Z,51.00
2019-03-22T13:45:22.097Z,49.53
2019-03-22T13:47:50.653Z,44.10
2019-03-22T13:50:19.270Z,49.03
2019-03-22T13:52:47.792Z,51.03
2019-03-22T13:55:16.323Z,44.93
2019-03-22T13:57:44.798Z,49.97
2019-03-22T14:00:15.340Z,47.97
2019-03-22T14:02:43.875Z,52.90
2019-03-22T14:05:12.636Z,51.20
2019-03-22T14:07:48.890Z,51.93
2019-03-22T14:10:33.378Z,49.93
2019-03-22T14:13:05.892Z,44.83
2019-03-22T14:15:35.931Z,44.03
2019-03-22T14:18:04.915Z,49.73
2019-03-22T14:20:36.080Z,47.93
2019-03-22T14:23:04.960Z,48.27
2019-03-22T14:25:33.538Z,50.07
2019-03-22T14:28:02.001Z,46.77
2019-03-22T14:30:30.494Z,54.77
2019-03-22T14:33:12.926Z,52.53
2019-03-22T14:35:34.440Z,52.40
2019-03-22T14:38:02.987Z,45.67
2019-03-22T14:40:41.788Z,47.23
2019-03-22T14:43:11.763Z,50.33
2019-03-22T14:45:40.521Z,49.53
2019-03-22T14:48:11.784Z,47.80
2019-03-22T14:50:40.317Z,49.83
2019-03-22T14:53:08.891Z,49.57
2019-03-22T14:55:37.413Z,46.77
2019-03-22T14:58:05.953Z,52.20
2019-03-22T15:00:34.451Z,51.33
2019-03-22T15:03:04.740Z,56.03
2019-03-22T15:05:33.243Z,44.87
2019-03-22T15:08:01.706Z,49.87
2019-03-22T15:10:30.238Z,47.83
2019-03-22T15:12:58.782Z,49.97
2019-03-22T15:15:28.900Z,52.70
2019-03-22T15:18:01.849Z,48.90
2019-03-22T15:20:43.925Z,47.83
2019-03-22T15:23:30.367Z,51.30
2019-03-22T15:26:15.756Z,52.50
2019-03-22T15:28:48.815Z,51.53
2019-03-22T15:31:31.223Z,55.67
2019-03-22T15:34:17.954Z,60.57
2019-03-22T15:36:50.848Z,56.10
2019-03-22T15:39:21.346Z,57.50
2019-03-22T15:41:50.007Z,53.20
2019-03-22T15:44:18.678Z,53.23
2019-03-22T15:46:47.302Z,54.27
2019-03-22T15:49:15.903Z,56.07
2019-03-22T15:51:44.564Z,52.63
2019-03-22T15:54:13.042Z,54.37
2019-03-22T15:56:41.494Z,53.10
2019-03-22T15:59:10.114Z,55.93
2019-03-22T16:01:38.613Z,54.33
2019-03-22T16:04:07.194Z,56.27
2019-03-22T16:06:35.810Z,52.87
2019-03-22T16:09:07.328Z,52.50
2019-03-22T16:11:35.792Z,51.97
2019-03-22T16:14:04.850Z,57.07
2019-03-22T16:16:34.895Z,54.83
2019-03-22T16:19:03.376Z,54.50
2019-03-22T16:21:31.922Z,51.60
2019-03-22T16:24:00.448Z,60.77
2019-03-22T16:26:28.958Z,52.53
2019-03-22T16:28:57.471Z,56.83
2019-03-22T16:31:26.090Z,55.07
2019-03-22T16:33:56.400Z,54.60
2019-03-22T16:36:25.120Z,53.87
2019-03-22T16:38:53.754Z,53.20
2019-03-22T16:41:23.771Z,59.33
2019-03-22T16:43:52.571Z,57.73
2019-03-22T16:46:21.096Z,54.53
2019-03-22T16:48:49.626Z,55.90
2019-03-22T16:51:18.174Z,57.03
2019-03-22T16:53:46.598Z,56.57
2019-03-22T16:56:15.073Z,54.07
2019-03-22T16:58:43.627Z,57.07
2019-03-22T17:01:12.306Z,60.00
2019-03-22T17:03:40.878Z,59.70
2019-03-22T17:06:09.326Z,59.43
2019-03-22T17:08:37.909Z,61.47
2019-03-22T17:11:06.428Z,61.53
2019-03-22T17:13:34.953Z,60.73
2019-03-22T17:16:03.646Z,59.73
2019-03-22T17:18:32.239Z,58.17
2019-03-22T17:21:00.782Z,65.60
2019-03-22T17:23:29.437Z,63.47
2019-03-22T17:25:59.813Z,57.33
2019-03-22T17:28:28.420Z,63.10
2019-03-22T17:30:56.958Z,64.40
2019-03-22T17:33:25.424Z,62.97
2019-03-22T17:35:53.997Z,59.10
2019-03-22T17:38:22.464Z,61.43
2019-03-22T17:40:51.069Z,62.27
2019-03-22T17:43:19.555Z,61.93
2019-03-22T17:45:48.023Z,64.90
2019-03-22T17:48:16.499Z,62.97
2019-03-22T17:50:44.985Z,57.93
2019-03-22T17:53:13.446Z,61.63
2019-03-22T17:55:41.902Z,62.50
2019-03-22T17:58:10.500Z,65.43
2019-03-22T18:00:39.074Z,71.93
2019-03-22T18:03:07.654Z,74.87
2019-03-22T18:05:36.178Z,71.47
2019-03-22T18:08:06.481Z,71.47
2019-03-22T18:10:35.008Z,76.83
2019-03-22T18:13:03.495Z,79.07
2019-03-22T18:15:32.073Z,77.87
2019-03-22T18:18:00.557Z,83.97
2019-03-22T18:20:29.084Z,83.27
2019-03-22T18:22:57.596Z,82.13
2019-03-22T18:25:26.081Z,80.30
2019-03-22T18:27:54.595Z,79.60
2019-03-22T18:30:23.085Z,79.23
2019-03-22T18:32:51.615Z,83.13
2019-03-22T18:35:20.100Z,77.70
2019-03-22T18:37:48.646Z,77.27
2019-03-22T18:40:18.800Z,86.40
2019-03-22T18:42:47.247Z,86.10
2019-03-22T18:45:15.698Z,86.30
2019-03-22T18:47:44.175Z,82.70
2019-03-22T18:50:15.789Z,82.00
2019-03-22T18:52:44.240Z,75.00
2019-03-22T18:55:12.825Z,80.77
2019-03-22T18:57:41.318Z,84.43
2019-03-22T19:00:17.793Z,80.33
2019-03-22T19:02:46.252Z,79.80
2019-03-22T19:05:15.401Z,80.97
2019-03-22T19:07:43.992Z,82.20
2019-03-22T19:10:16.101Z,84.37
2019-03-22T19:12:44.645Z,83.57
2019-03-22T19:15:14.395Z,83.90
2019-03-22T19:17:42.876Z,84.47
2019-03-22T19:20:15.789Z,83.77
2019-03-22T19:22:44.414Z,86.47
2019-03-22T19:25:14.504Z,80.87
2019-03-22T19:27:43.603Z,88.37
2019-03-22T19:30:16.370Z,89.80
2019-03-22T19:32:45.079Z,95.63
2019-03-22T19:35:15.162Z,90.00
2019-03-22T19:37:43.836Z,99.77
2019-03-22T19:40:14.335Z,100.67
2019-03-22T19:42:42.923Z,107.73
2019-03-22T19:45:13.563Z,107.20
2019-03-22T19:47:42.178Z,111.33
2019-03-22T19:50:13.461Z,115.93
2019-03-22T19:52:43.664Z,114.27
2019-03-22T19:55:12.374Z,112.53
2019-03-22T19:57:40.944Z,106.43
2019-03-22T20:00:15.212Z,110.23
2019-03-22T20:02:43.749Z,104.90
2019-03-22T20:05:13.843Z,118.37
2019-03-22T20:07:47.028Z,111.80
2019-03-22T20:10:15.502Z,111.63
2019-03-22T20:12:43.986Z,111.00
2019-03-22T20:15:12.633Z,110.87
2019-03-22T20:17:41.202Z,104.20
2019-03-22T20:20:10.013Z,112.33
2019-03-22T20:22:38.522Z,112.73
2019-03-22T20:25:08.321Z,113.87
2019-03-22T20:27:36.786Z,121.50
2019-03-22T20:30:07.789Z,118.27
2019-03-22T20:32:36.291Z,113.47
2019-03-22T20:35:15.824Z,123.63
2019-03-22T20:37:37.672Z,115.13
2019-03-22T20:40:08.779Z,120.80
2019-03-22T20:42:37.332Z,116.30
2019-03-22T20:45:07.117Z,121.30
2019-03-22T20:47:35.621Z,121.37
2019-03-22T20:50:06.621Z,114.33
2019-03-22T20:52:35.207Z,119.13
2019-03-22T20:55:07.215Z,112.70
2019-03-22T20:57:35.995Z,111.70
2019-03-22T21:00:11.415Z,113.10
2019-03-22T21:02:39.860Z,117.67
2019-03-22T21:05:08.482Z,109.63
2019-03-22T21:07:37.015Z,119.93
2019-03-22T21:10:07.188Z,112.20
2019-03-22T21:12:35.628Z,111.77
2019-03-22T21:15:06.241Z,118.40
2019-03-22T21:17:34.795Z,112.30
2019-03-22T21:20:04.902Z,113.07
2019-03-22T21:22:33.354Z,118.33
2019-03-22T21:25:01.819Z,115.97
2019-03-22T21:27:30.320Z,117.93
2019-03-22T21:29:58.780Z,106.67
2019-03-22T21:32:27.236Z,116.80
2019-03-22T21:34:55.705Z,115.17
2019-03-22T21:37:24.222Z,112.10
2019-03-22T21:39:52.698Z,106.00
2019-03-22T21:42:21.162Z,116.73
2019-03-22T21:44:49.690Z,113.73
2019-03-22T21:47:18.175Z,109.33
2019-03-22T21:49:46.706Z,110.87
2019-03-22T21:52:15.163Z,113.80
2019-03-22T21:54:43.625Z,122.23
2019-03-22T21:57:12.114Z,115.13
2019-03-22T21:59:40.630Z,108.97
2019-03-22T22:02:09.173Z,114.57
2019-03-22T22:04:37.728Z,111.70
2019-03-22T22:07:06.241Z,115.03
2019-03-22T22:09:34.696Z,120.53
2019-03-22T22:12:03.207Z,107.53
2019-03-22T22:14:40.418Z,116.10
2019-03-22T22:17:01.982Z,115.43
2019-03-22T22:19:30.489Z,112.33
2019-03-22T22:21:59.014Z,112.00
2019-03-22T22:24:27.595Z,117.27
2019-03-22T22:26:56.108Z,118.57
2019-03-22T22:29:24.701Z,115.33
2019-03-22T22:31:53.198Z,119.03
2019-03-22T22:34:21.689Z,121.57
2019-03-22T22:36:50.191Z,115.17
2019-03-22T22:39:18.692Z,118.57
2019-03-22T22:41:47.142Z,120.83
2019-03-22T22:44:15.600Z,116.67
2019-03-22T22:46:44.065Z,127.50
2019-03-22T22:49:12.645Z,122.23
2019-03-22T22:51:41.150Z,118.63
2019-03-22T22:54:09.626Z,119.33
2019-03-22T22:56:38.142Z,122.73
2019-03-22T22:59:06.641Z,120.07
2019-03-22T23:01:35.194Z,122.23
2019-03-22T23:04:03.667Z,125.13
2019-03-22T23:06:32.215Z,133.87
2019-03-22T23:09:00.647Z,130.97
2019-03-22T23:11:29.129Z,121.47
2019-03-22T23:13:57.648Z,126.87
2019-03-22T23:16:26.096Z,120.00
2019-03-22T23:18:54.657Z,124.73
2019-03-22T23:21:23.116Z,116.53
2019-03-22T23:23:51.582Z,122.10
2019-03-22T23:26:20.112Z,123.43
2019-03-22T23:28:48.657Z,121.20
2019-03-22T23:31:17.105Z,128.80
2019-03-22T23:33:45.687Z,112.30
2019-03-22T23:36:20.246Z,120.17
2019-03-22T23:38:44.415Z,122.17
2019-03-22T23:41:12.935Z,119.33
2019-03-22T23:43:41.465Z,118.60
2019-03-22T23:46:09.933Z,119.47
2019-03-22T23:48:38.464Z,127.40
2019-03-22T23:51:06.954Z,118.87
2019-03-22T23:53:35.418Z,133.77
2019-03-22T23:56:03.942Z,125.00
2019-03-22T23:58:32.415Z,134.27
